sensor_id;sensor_type;location;lat;lon;timestamp;temperature;humidity
15072;DHT22;7635;56.696;13.002;2022-10-30T00:00:17;11.50;99.90
15072;DHT22;7635;56.696;13.002;2022-10-30T00:02:45;11.50;99.90
15072;DHT22;7635;56.696;13.002;2022-10-30T00:05:12;11.50;99.90
15072;DHT22;7635;56.696;13.002;2022-10-30T00:07:40;11.50;99.90
15072;DHT22;7635;56.696;13.002;2022-10-30T00:10:08;11.50;99.90
15072;DHT22;7635;56.696;13.002;2022-10-30T00:12:35;11.50;99.90
15072;DHT22;7635;56.696;13.002;2022-10-30T00:15:03;11.50;99.90
15072;DHT22;7635;56.696;13.002;2022-10-30T00:17:30;11.50;99.90
15072;DHT22;7635;56.696;13.002;2022-10-30T00:19:56;11.50;99.90
15072;DHT22;7635;56.696;13.002;2022-10-30T00:22:23;11.50;99.90
15072;DHT22;7635;56.696;13.002;2022-10-30T00:24:51;11.50;99.90
15072;DHT22;7635;56.696;13.002;2022-10-30T00:27:18;11.50;99.90
15072;DHT22;7635;56.696;13.002;2022-10-30T00:29:45;11.40;99.90
15072;DHT22;7635;56.696;13.002;2022-10-30T00:32:12;11.40;99.90
15072;DHT22;7635;56.696;13.002;2022-10-30T00:34:39;11.40;99.90
15072;DHT22;7635;56.696;13.002;2022-10-30T00:37:06;11.40;99.90
15072;DHT22;7635;56.696;13.002;2022-10-30T00:39:32;11.40;99.90
15072;DHT22;7635;56.696;13.002;2022-10-30T00:42:00;11.40;99.90
15072;DHT22;7635;56.696;13.002;2022-10-30T00:44:41;11.40;99.90
15072;DHT22;7635;56.696;13.002;2022-10-30T00:47:17;11.40;99.90
15072;DHT22;7635;56.696;13.002;2022-10-30T00:49:50;11.40;99.90
15072;DHT22;7635;56.696;13.002;2022-10-30T00:52:19;11.40;99.90
15072;DHT22;7635;56.696;13.002;2022-10-30T00:54:46;11.40;99.90
15072;DHT22;7635;56.696;13.002;2022-10-30T00:57:15;11.40;99.90
15072;DHT22;7635;56.696;13.002;2022-10-30T00:59:42;11.40;99.90
15072;DHT22;7635;56.696;13.002;2022-10-30T01:02:08;11.40;99.90
15072;DHT22;7635;56.696;13.002;2022-10-30T01:04:36;11.40;99.90
15072;DHT22;7635;56.696;13.002;2022-10-30T01:07:09;11.40;99.90
15072;DHT22;7635;56.696;13.002;2022-10-30T01:09:37;11.40;99.90
15072;DHT22;7635;56.696;13.002;2022-10-30T01:12:04;11.40;99.90
15072;DHT22;7635;56.696;13.002;2022-10-30T01:14:33;11.40;99.90
15072;DHT22;7635;56.696;13.002;2022-10-30T01:17:32;11.40;99.90
15072;DHT22;7635;56.696;13.002;2022-10-30T01:20:14;11.40;99.90
15072;DHT22;7635;56.696;13.002;2022-10-30T01:22:54;11.40;99.90
15072;DHT22;7635;56.696;13.002;2022-10-30T01:25:35;11.40;99.90
15072;DHT22;7635;56.696;13.002;2022-10-30T01:28:08;11.40;99.90
15072;DHT22;7635;56.696;13.002;2022-10-30T01:30:50;11.40;99.90
15072;DHT22;7635;56.696;13.002;2022-10-30T01:33:27;11.50;99.90
15072;DHT22;7635;56.696;13.002;2022-10-30T01:36:01;11.50;99.90
15072;DHT22;7635;56.696;13.002;2022-10-30T01:38:35;11.50;99.90
15072;DHT22;7635;56.696;13.002;2022-10-30T01:41:04;11.50;99.90
15072;DHT22;7635;56.696;13.002;2022-10-30T01:43:31;11.50;99.90
15072;DHT22;7635;56.696;13.002;2022-10-30T01:46:09;11.50;99.90
15072;DHT22;7635;56.696;13.002;2022-10-30T01:48:56;11.50;99.90
15072;DHT22;7635;56.696;13.002;2022-10-30T01:51:38;11.50;99.90
15072;DHT22;7635;56.696;13.002;2022-10-30T01:54:14;11.50;99.90
15072;DHT22;7635;56.696;13.002;2022-10-30T01:56:58;11.50;99.90
15072;DHT22;7635;56.696;13.002;2022-10-30T01:59:31;11.50;99.90
15072;DHT22;7635;56.696;13.002;2022-10-30T02:02:02;11.50;99.90
15072;DHT22;7635;56.696;13.002;2022-10-30T02:04:29;11.50;99.90
15072;DHT22;7635;56.696;13.002;2022-10-30T02:06:56;11.50;99.90
15072;DHT22;7635;56.696;13.002;2022-10-30T02:09:23;11.50;99.90
15072;DHT22;7635;56.696;13.002;2022-10-30T02:11:51;11.50;99.90
15072;DHT22;7635;56.696;13.002;2022-10-30T02:14:22;11.50;99.90
15072;DHT22;7635;56.696;13.002;2022-10-30T02:16:52;11.50;99.90
15072;DHT22;7635;56.696;13.002;2022-10-30T02:19:21;11.50;99.90
15072;DHT22;7635;56.696;13.002;2022-10-30T02:21:50;11.50;99.90
15072;DHT22;7635;56.696;13.002;2022-10-30T02:24:17;11.50;99.90
15072;DHT22;7635;56.696;13.002;2022-10-30T02:26:43;11.50;99.90
15072;DHT22;7635;56.696;13.002;2022-10-30T02:29:11;11.50;99.90
15072;DHT22;7635;56.696;13.002;2022-10-30T02:31:38;11.50;99.90
15072;DHT22;7635;56.696;13.002;2022-10-30T02:34:04;11.50;99.90
15072;DHT22;7635;56.696;13.002;2022-10-30T02:36:31;11.50;99.90
15072;DHT22;7635;56.696;13.002;2022-10-30T02:38:59;11.50;99.90
15072;DHT22;7635;56.696;13.002;2022-10-30T02:41:26;11.50;99.90
15072;DHT22;7635;56.696;13.002;2022-10-30T02:43:53;11.50;99.90
15072;DHT22;7635;56.696;13.002;2022-10-30T02:46:20;11.50;99.90
15072;DHT22;7635;56.696;13.002;2022-10-30T02:48:47;11.50;99.90
15072;DHT22;7635;56.696;13.002;2022-10-30T02:51:14;11.50;99.90
15072;DHT22;7635;56.696;13.002;2022-10-30T02:53:41;11.50;99.90
15072;DHT22;7635;56.696;13.002;2022-10-30T02:56:11;11.50;99.90
15072;DHT22;7635;56.696;13.002;2022-10-30T02:58:38;11.50;99.90
15072;DHT22;7635;56.696;13.002;2022-10-30T03:01:06;11.50;99.90
15072;DHT22;7635;56.696;13.002;2022-10-30T03:03:34;11.50;99.90
15072;DHT22;7635;56.696;13.002;2022-10-30T03:06:01;11.50;99.90
15072;DHT22;7635;56.696;13.002;2022-10-30T03:08:29;11.50;99.90
15072;DHT22;7635;56.696;13.002;2022-10-30T03:11:00;11.50;99.90
15072;DHT22;7635;56.696;13.002;2022-10-30T03:13:30;11.50;99.90
15072;DHT22;7635;56.696;13.002;2022-10-30T03:16:01;11.50;99.90
15072;DHT22;7635;56.696;13.002;2022-10-30T03:18:28;11.50;99.90
15072;DHT22;7635;56.696;13.002;2022-10-30T03:20:56;11.50;99.90
15072;DHT22;7635;56.696;13.002;2022-10-30T03:23:23;11.50;99.90
15072;DHT22;7635;56.696;13.002;2022-10-30T03:25:53;11.50;99.90
15072;DHT22;7635;56.696;13.002;2022-10-30T03:28:20;11.60;99.90
15072;DHT22;7635;56.696;13.002;2022-10-30T03:30:49;11.50;99.90
15072;DHT22;7635;56.696;13.002;2022-10-30T03:33:16;11.60;99.90
15072;DHT22;7635;56.696;13.002;2022-10-30T03:35:43;11.60;99.90
15072;DHT22;7635;56.696;13.002;2022-10-30T03:38:11;11.60;99.90
15072;DHT22;7635;56.696;13.002;2022-10-30T03:40:38;11.60;99.90
15072;DHT22;7635;56.696;13.002;2022-10-30T03:43:05;11.60;99.90
15072;DHT22;7635;56.696;13.002;2022-10-30T03:45:32;11.60;99.90
15072;DHT22;7635;56.696;13.002;2022-10-30T03:48:01;11.60;99.90
15072;DHT22;7635;56.696;13.002;2022-10-30T03:50:28;11.60;99.90
15072;DHT22;7635;56.696;13.002;2022-10-30T03:52:55;11.60;99.90
15072;DHT22;7635;56.696;13.002;2022-10-30T03:55:23;11.60;99.90
15072;DHT22;7635;56.696;13.002;2022-10-30T03:57:50;11.60;99.90
15072;DHT22;7635;56.696;13.002;2022-10-30T04:00:18;11.70;99.90
15072;DHT22;7635;56.696;13.002;2022-10-30T04:02:45;11.60;99.90
15072;DHT22;7635;56.696;13.002;2022-10-30T04:05:13;11.70;99.90
15072;DHT22;7635;56.696;13.002;2022-10-30T04:07:41;11.70;99.90
15072;DHT22;7635;56.696;13.002;2022-10-30T04:10:08;11.70;99.90
15072;DHT22;7635;56.696;13.002;2022-10-30T04:12:35;11.70;99.90
15072;DHT22;7635;56.696;13.002;2022-10-30T04:15:02;11.70;99.90
15072;DHT22;7635;56.696;13.002;2022-10-30T04:17:29;11.80;99.90
15072;DHT22;7635;56.696;13.002;2022-10-30T04:19:56;11.80;99.90
15072;DHT22;7635;56.696;13.002;2022-10-30T04:22:24;11.80;99.90
15072;DHT22;7635;56.696;13.002;2022-10-30T04:24:51;11.80;99.90
15072;DHT22;7635;56.696;13.002;2022-10-30T04:27:18;11.80;99.90
15072;DHT22;7635;56.696;13.002;2022-10-30T04:29:45;11.80;99.90
15072;DHT22;7635;56.696;13.002;2022-10-30T04:32:12;11.80;99.90
15072;DHT22;7635;56.696;13.002;2022-10-30T04:34:39;11.80;99.90
15072;DHT22;7635;56.696;13.002;2022-10-30T04:37:06;11.80;99.90
15072;DHT22;7635;56.696;13.002;2022-10-30T04:39:34;11.80;99.90
15072;DHT22;7635;56.696;13.002;2022-10-30T04:42:01;11.80;99.90
15072;DHT22;7635;56.696;13.002;2022-10-30T04:44:28;11.90;99.90
15072;DHT22;7635;56.696;13.002;2022-10-30T04:46:55;11.90;99.90
15072;DHT22;7635;56.696;13.002;2022-10-30T04:49:22;11.90;99.90
15072;DHT22;7635;56.696;13.002;2022-10-30T04:51:49;11.90;99.90
15072;DHT22;7635;56.696;13.002;2022-10-30T04:54:15;11.90;99.90
15072;DHT22;7635;56.696;13.002;2022-10-30T04:56:43;11.90;99.90
15072;DHT22;7635;56.696;13.002;2022-10-30T04:59:10;11.90;99.90
15072;DHT22;7635;56.696;13.002;2022-10-30T05:01:37;11.90;99.90
15072;DHT22;7635;56.696;13.002;2022-10-30T05:04:04;11.90;99.90
15072;DHT22;7635;56.696;13.002;2022-10-30T05:06:31;11.90;99.90
15072;DHT22;7635;56.696;13.002;2022-10-30T05:08:58;11.90;99.90
15072;DHT22;7635;56.696;13.002;2022-10-30T05:11:25;11.90;99.90
15072;DHT22;7635;56.696;13.002;2022-10-30T05:13:53;11.90;99.90
15072;DHT22;7635;56.696;13.002;2022-10-30T05:16:20;11.90;99.90
15072;DHT22;7635;56.696;13.002;2022-10-30T05:18:46;11.90;99.90
15072;DHT22;7635;56.696;13.002;2022-10-30T05:21:13;11.90;99.90
15072;DHT22;7635;56.696;13.002;2022-10-30T05:23:40;11.90;99.90
15072;DHT22;7635;56.696;13.002;2022-10-30T05:26:07;11.90;99.90
15072;DHT22;7635;56.696;13.002;2022-10-30T05:28:33;11.90;99.90
15072;DHT22;7635;56.696;13.002;2022-10-30T05:31:02;11.90;99.90
15072;DHT22;7635;56.696;13.002;2022-10-30T05:33:28;11.90;99.90
15072;DHT22;7635;56.696;13.002;2022-10-30T05:35:55;11.90;99.90
15072;DHT22;7635;56.696;13.002;2022-10-30T05:38:22;11.90;99.90
15072;DHT22;7635;56.696;13.002;2022-10-30T05:40:48;11.90;99.90
15072;DHT22;7635;56.696;13.002;2022-10-30T05:43:15;11.90;99.90
15072;DHT22;7635;56.696;13.002;2022-10-30T05:45:42;11.90;99.90
15072;DHT22;7635;56.696;13.002;2022-10-30T05:48:10;11.90;99.90
15072;DHT22;7635;56.696;13.002;2022-10-30T05:50:37;11.90;99.90
15072;DHT22;7635;56.696;13.002;2022-10-30T05:53:04;11.90;99.90
15072;DHT22;7635;56.696;13.002;2022-10-30T05:55:31;11.90;99.90
15072;DHT22;7635;56.696;13.002;2022-10-30T05:57:58;11.90;99.90
15072;DHT22;7635;56.696;13.002;2022-10-30T06:00:26;11.90;99.90
15072;DHT22;7635;56.696;13.002;2022-10-30T06:02:58;11.90;99.90
15072;DHT22;7635;56.696;13.002;2022-10-30T06:05:26;11.90;99.90
15072;DHT22;7635;56.696;13.002;2022-10-30T06:07:54;11.90;99.90
15072;DHT22;7635;56.696;13.002;2022-10-30T06:10:21;11.90;99.90
15072;DHT22;7635;56.696;13.002;2022-10-30T06:12:51;11.90;99.90
15072;DHT22;7635;56.696;13.002;2022-10-30T06:15:19;11.90;99.90
15072;DHT22;7635;56.696;13.002;2022-10-30T06:17:46;11.90;99.90
15072;DHT22;7635;56.696;13.002;2022-10-30T06:20:13;11.90;99.90
15072;DHT22;7635;56.696;13.002;2022-10-30T06:22:41;12.00;99.90
15072;DHT22;7635;56.696;13.002;2022-10-30T06:25:08;12.00;99.90
15072;DHT22;7635;56.696;13.002;2022-10-30T06:27:35;12.00;99.90
15072;DHT22;7635;56.696;13.002;2022-10-30T06:30:02;12.00;99.90
15072;DHT22;7635;56.696;13.002;2022-10-30T06:32:29;12.00;99.90
15072;DHT22;7635;56.696;13.002;2022-10-30T06:34:55;12.00;99.90
15072;DHT22;7635;56.696;13.002;2022-10-30T06:37:22;12.00;99.90
15072;DHT22;7635;56.696;13.002;2022-10-30T06:39:50;12.00;99.90
15072;DHT22;7635;56.696;13.002;2022-10-30T06:42:17;12.00;99.90
15072;DHT22;7635;56.696;13.002;2022-10-30T06:44:44;12.00;99.90
15072;DHT22;7635;56.696;13.002;2022-10-30T06:47:10;12.00;99.90
15072;DHT22;7635;56.696;13.002;2022-10-30T06:49:37;12.00;99.90
15072;DHT22;7635;56.696;13.002;2022-10-30T06:52:04;12.10;99.90
15072;DHT22;7635;56.696;13.002;2022-10-30T06:54:30;12.10;99.90
15072;DHT22;7635;56.696;13.002;2022-10-30T06:56:59;12.00;99.90
15072;DHT22;7635;56.696;13.002;2022-10-30T06:59:26;12.00;99.90
15072;DHT22;7635;56.696;13.002;2022-10-30T07:01:53;12.10;99.90
15072;DHT22;7635;56.696;13.002;2022-10-30T07:04:20;12.10;99.90
15072;DHT22;7635;56.696;13.002;2022-10-30T07:06:47;12.10;99.90
15072;DHT22;7635;56.696;13.002;2022-10-30T07:09:14;12.10;99.90
15072;DHT22;7635;56.696;13.002;2022-10-30T07:11:41;12.10;99.90
15072;DHT22;7635;56.696;13.002;2022-10-30T07:14:11;12.10;99.90
15072;DHT22;7635;56.696;13.002;2022-10-30T07:16:38;12.10;99.90
15072;DHT22;7635;56.696;13.002;2022-10-30T07:19:05;12.10;99.90
15072;DHT22;7635;56.696;13.002;2022-10-30T07:21:31;12.20;99.90
15072;DHT22;7635;56.696;13.002;2022-10-30T07:23:58;12.20;99.90
15072;DHT22;7635;56.696;13.002;2022-10-30T07:26:25;12.20;99.90
15072;DHT22;7635;56.696;13.002;2022-10-30T07:28:52;12.20;99.90
15072;DHT22;7635;56.696;13.002;2022-10-30T07:31:20;12.20;99.90
15072;DHT22;7635;56.696;13.002;2022-10-30T07:33:46;12.20;99.90
15072;DHT22;7635;56.696;13.002;2022-10-30T07:36:13;12.20;99.90
15072;DHT22;7635;56.696;13.002;2022-10-30T07:38:40;12.20;99.90
15072;DHT22;7635;56.696;13.002;2022-10-30T07:41:07;12.20;99.90
15072;DHT22;7635;56.696;13.002;2022-10-30T07:43:33;12.20;99.90
15072;DHT22;7635;56.696;13.002;2022-10-30T07:46:00;12.20;99.90
15072;DHT22;7635;56.696;13.002;2022-10-30T07:48:28;12.30;99.90
15072;DHT22;7635;56.696;13.002;2022-10-30T07:50:55;12.30;99.90
15072;DHT22;7635;56.696;13.002;2022-10-30T07:53:22;12.20;99.90
15072;DHT22;7635;56.696;13.002;2022-10-30T07:55:49;12.30;99.90
15072;DHT22;7635;56.696;13.002;2022-10-30T07:58:15;12.30;99.90
15072;DHT22;7635;56.696;13.002;2022-10-30T08:00:42;12.30;99.90
15072;DHT22;7635;56.696;13.002;2022-10-30T08:03:10;12.30;99.90
15072;DHT22;7635;56.696;13.002;2022-10-30T08:05:38;12.30;99.90
15072;DHT22;7635;56.696;13.002;2022-10-30T08:08:05;12.40;99.90
15072;DHT22;7635;56.696;13.002;2022-10-30T08:10:32;12.40;99.90
15072;DHT22;7635;56.696;13.002;2022-10-30T08:12:59;12.40;99.90
15072;DHT22;7635;56.696;13.002;2022-10-30T08:15:26;12.40;99.90
15072;DHT22;7635;56.696;13.002;2022-10-30T08:17:53;12.40;99.90
15072;DHT22;7635;56.696;13.002;2022-10-30T08:20:22;12.40;99.90
15072;DHT22;7635;56.696;13.002;2022-10-30T08:22:52;12.40;99.90
15072;DHT22;7635;56.696;13.002;2022-10-30T08:25:20;12.40;99.90
15072;DHT22;7635;56.696;13.002;2022-10-30T08:27:51;12.50;99.90
15072;DHT22;7635;56.696;13.002;2022-10-30T08:30:19;12.50;99.90
15072;DHT22;7635;56.696;13.002;2022-10-30T08:32:46;12.50;99.90
15072;DHT22;7635;56.696;13.002;2022-10-30T08:35:13;12.50;99.90
15072;DHT22;7635;56.696;13.002;2022-10-30T08:37:40;12.50;99.90
15072;DHT22;7635;56.696;13.002;2022-10-30T08:40:10;12.50;99.90
15072;DHT22;7635;56.696;13.002;2022-10-30T08:42:36;12.50;99.90
15072;DHT22;7635;56.696;13.002;2022-10-30T08:45:04;12.50;99.90
15072;DHT22;7635;56.696;13.002;2022-10-30T08:47:31;12.50;99.90
15072;DHT22;7635;56.696;13.002;2022-10-30T08:49:58;12.50;99.90
15072;DHT22;7635;56.696;13.002;2022-10-30T08:52:24;12.60;99.90
15072;DHT22;7635;56.696;13.002;2022-10-30T08:54:51;12.60;99.90
15072;DHT22;7635;56.696;13.002;2022-10-30T08:57:20;12.60;99.90
15072;DHT22;7635;56.696;13.002;2022-10-30T08:59:46;12.60;99.90
15072;DHT22;7635;56.696;13.002;2022-10-30T09:02:13;12.60;99.90
15072;DHT22;7635;56.696;13.002;2022-10-30T09:04:40;12.70;99.90
15072;DHT22;7635;56.696;13.002;2022-10-30T09:07:07;12.70;99.90
15072;DHT22;7635;56.696;13.002;2022-10-30T09:09:33;12.60;99.90
15072;DHT22;7635;56.696;13.002;2022-10-30T09:12:00;12.70;99.90
15072;DHT22;7635;56.696;13.002;2022-10-30T09:14:28;12.70;99.90
15072;DHT22;7635;56.696;13.002;2022-10-30T09:16:55;12.70;99.90
15072;DHT22;7635;56.696;13.002;2022-10-30T09:19:22;12.70;99.90
15072;DHT22;7635;56.696;13.002;2022-10-30T09:21:48;12.70;99.90
15072;DHT22;7635;56.696;13.002;2022-10-30T09:24:15;12.70;99.90
15072;DHT22;7635;56.696;13.002;2022-10-30T09:26:42;12.70;99.90
15072;DHT22;7635;56.696;13.002;2022-10-30T09:29:09;12.70;99.90
15072;DHT22;7635;56.696;13.002;2022-10-30T09:31:37;12.70;99.90
15072;DHT22;7635;56.696;13.002;2022-10-30T09:34:03;12.80;99.90
15072;DHT22;7635;56.696;13.002;2022-10-30T09:36:30;12.80;99.90
15072;DHT22;7635;56.696;13.002;2022-10-30T09:38:57;12.70;99.90
15072;DHT22;7635;56.696;13.002;2022-10-30T09:41:36;12.80;99.90
15072;DHT22;7635;56.696;13.002;2022-10-30T09:44:17;12.90;99.90
15072;DHT22;7635;56.696;13.002;2022-10-30T09:46:57;12.90;99.90
15072;DHT22;7635;56.696;13.002;2022-10-30T09:49:35;13.00;99.90
15072;DHT22;7635;56.696;13.002;2022-10-30T09:52:19;13.10;99.90
15072;DHT22;7635;56.696;13.002;2022-10-30T09:54:57;13.50;99.90
15072;DHT22;7635;56.696;13.002;2022-10-30T09:57:32;14.30;99.90
15072;DHT22;7635;56.696;13.002;2022-10-30T10:00:04;15.10;99.90
15072;DHT22;7635;56.696;13.002;2022-10-30T10:02:35;16.00;99.90
15072;DHT22;7635;56.696;13.002;2022-10-30T10:05:12;16.90;99.90
15072;DHT22;7635;56.696;13.002;2022-10-30T10:07:43;17.50;99.90
15072;DHT22;7635;56.696;13.002;2022-10-30T10:10:17;18.00;99.90
15072;DHT22;7635;56.696;13.002;2022-10-30T10:12:47;18.70;99.90
15072;DHT22;7635;56.696;13.002;2022-10-30T10:15:20;19.10;99.90
15072;DHT22;7635;56.696;13.002;2022-10-30T10:17:50;19.50;99.90
15072;DHT22;7635;56.696;13.002;2022-10-30T10:20:26;20.00;99.90
15072;DHT22;7635;56.696;13.002;2022-10-30T10:22:54;20.50;99.90
15072;DHT22;7635;56.696;13.002;2022-10-30T10:25:22;20.90;99.90
15072;DHT22;7635;56.696;13.002;2022-10-30T10:27:58;21.20;99.90
15072;DHT22;7635;56.696;13.002;2022-10-30T10:30:33;21.50;99.90
15072;DHT22;7635;56.696;13.002;2022-10-30T10:33:24;21.80;99.90
15072;DHT22;7635;56.696;13.002;2022-10-30T10:36:06;21.80;99.90
15072;DHT22;7635;56.696;13.002;2022-10-30T10:38:58;21.80;99.90
15072;DHT22;7635;56.696;13.002;2022-10-30T10:41:31;22.00;99.90
15072;DHT22;7635;56.696;13.002;2022-10-30T10:44:16;22.00;99.90
15072;DHT22;7635;56.696;13.002;2022-10-30T10:46:56;21.80;99.90
15072;DHT22;7635;56.696;13.002;2022-10-30T10:49:41;21.60;99.90
15072;DHT22;7635;56.696;13.002;2022-10-30T10:52:14;21.30;99.90
15072;DHT22;7635;56.696;13.002;2022-10-30T10:54:44;21.00;99.90
15072;DHT22;7635;56.696;13.002;2022-10-30T10:57:31;20.70;99.90
15072;DHT22;7635;56.696;13.002;2022-10-30T11:00:02;20.40;99.90
15072;DHT22;7635;56.696;13.002;2022-10-30T11:02:34;20.20;99.90
15072;DHT22;7635;56.696;13.002;2022-10-30T11:05:07;20.00;99.90
15072;DHT22;7635;56.696;13.002;2022-10-30T11:07:44;19.80;99.90
15072;DHT22;7635;56.696;13.002;2022-10-30T11:10:12;19.70;99.90
15072;DHT22;7635;56.696;13.002;2022-10-30T11:12:40;19.60;99.90
15072;DHT22;7635;56.696;13.002;2022-10-30T11:15:26;19.50;99.90
15072;DHT22;7635;56.696;13.002;2022-10-30T11:17:58;19.40;99.90
15072;DHT22;7635;56.696;13.002;2022-10-30T11:20:33;19.30;99.90
15072;DHT22;7635;56.696;13.002;2022-10-30T11:23:01;19.30;99.90
15072;DHT22;7635;56.696;13.002;2022-10-30T11:25:33;19.20;99.90
15072;DHT22;7635;56.696;13.002;2022-10-30T11:28:03;19.10;99.90
15072;DHT22;7635;56.696;13.002;2022-10-30T11:30:30;19.00;99.90
15072;DHT22;7635;56.696;13.002;2022-10-30T11:32:58;18.90;99.90
15072;DHT22;7635;56.696;13.002;2022-10-30T11:35:25;18.90;99.90
15072;DHT22;7635;56.696;13.002;2022-10-30T11:38:15;18.90;99.90
15072;DHT22;7635;56.696;13.002;2022-10-30T11:40:46;18.80;99.90
15072;DHT22;7635;56.696;13.002;2022-10-30T11:43:17;18.60;99.90
15072;DHT22;7635;56.696;13.002;2022-10-30T11:45:48;18.60;99.90
15072;DHT22;7635;56.696;13.002;2022-10-30T11:48:21;18.50;99.90
15072;DHT22;7635;56.696;13.002;2022-10-30T11:50:51;18.50;99.90
15072;DHT22;7635;56.696;13.002;2022-10-30T11:53:24;18.40;99.90
15072;DHT22;7635;56.696;13.002;2022-10-30T11:55:56;18.40;99.90
15072;DHT22;7635;56.696;13.002;2022-10-30T11:58:27;18.40;99.90
15072;DHT22;7635;56.696;13.002;2022-10-30T12:01:00;18.30;99.90
15072;DHT22;7635;56.696;13.002;2022-10-30T12:03:29;18.30;99.90
15072;DHT22;7635;56.696;13.002;2022-10-30T12:06:06;18.20;99.90
15072;DHT22;7635;56.696;13.002;2022-10-30T12:08:35;18.10;99.90
15072;DHT22;7635;56.696;13.002;2022-10-30T12:11:04;18.10;99.90
15072;DHT22;7635;56.696;13.002;2022-10-30T12:13:37;18.00;99.90
15072;DHT22;7635;56.696;13.002;2022-10-30T12:16:12;17.90;99.90
15072;DHT22;7635;56.696;13.002;2022-10-30T12:18:39;17.90;99.90
15072;DHT22;7635;56.696;13.002;2022-10-30T12:21:07;17.70;99.90
15072;DHT22;7635;56.696;13.002;2022-10-30T12:23:36;17.70;99.90
15072;DHT22;7635;56.696;13.002;2022-10-30T12:26:08;17.70;99.90
15072;DHT22;7635;56.696;13.002;2022-10-30T12:28:37;17.60;99.90
15072;DHT22;7635;56.696;13.002;2022-10-30T12:31:09;17.60;99.90
15072;DHT22;7635;56.696;13.002;2022-10-30T12:33:40;17.50;99.90
15072;DHT22;7635;56.696;13.002;2022-10-30T12:36:12;17.50;99.90
15072;DHT22;7635;56.696;13.002;2022-10-30T12:38:44;17.50;99.90
15072;DHT22;7635;56.696;13.002;2022-10-30T12:41:14;17.40;99.90
15072;DHT22;7635;56.696;13.002;2022-10-30T12:43:47;17.40;99.90
15072;DHT22;7635;56.696;13.002;2022-10-30T12:46:29;17.40;99.90
15072;DHT22;7635;56.696;13.002;2022-10-30T12:49:03;17.40;99.90
15072;DHT22;7635;56.696;13.002;2022-10-30T12:51:36;17.40;99.90
15072;DHT22;7635;56.696;13.002;2022-10-30T12:54:14;17.30;99.90
15072;DHT22;7635;56.696;13.002;2022-10-30T12:56:46;17.30;99.90
15072;DHT22;7635;56.696;13.002;2022-10-30T12:59:24;17.30;99.90
15072;DHT22;7635;56.696;13.002;2022-10-30T13:01:56;17.20;99.90
15072;DHT22;7635;56.696;13.002;2022-10-30T13:04:26;17.20;99.90
15072;DHT22;7635;56.696;13.002;2022-10-30T13:07:01;17.20;99.90
15072;DHT22;7635;56.696;13.002;2022-10-30T13:09:36;17.10;99.90
15072;DHT22;7635;56.696;13.002;2022-10-30T13:12:09;17.10;99.90
15072;DHT22;7635;56.696;13.002;2022-10-30T13:14:42;17.10;99.90
15072;DHT22;7635;56.696;13.002;2022-10-30T13:17:11;17.00;99.90
15072;DHT22;7635;56.696;13.002;2022-10-30T13:19:39;17.00;99.90
15072;DHT22;7635;56.696;13.002;2022-10-30T13:22:13;17.00;99.90
15072;DHT22;7635;56.696;13.002;2022-10-30T13:24:48;17.00;99.90
15072;DHT22;7635;56.696;13.002;2022-10-30T13:27:22;16.90;99.90
15072;DHT22;7635;56.696;13.002;2022-10-30T13:29:55;16.90;99.90
15072;DHT22;7635;56.696;13.002;2022-10-30T13:32:33;16.90;99.90
15072;DHT22;7635;56.696;13.002;2022-10-30T13:35:16;16.80;99.90
15072;DHT22;7635;56.696;13.002;2022-10-30T13:37:50;16.80;99.90
15072;DHT22;7635;56.696;13.002;2022-10-30T13:40:25;16.70;99.90
15072;DHT22;7635;56.696;13.002;2022-10-30T13:43:00;16.70;99.90
15072;DHT22;7635;56.696;13.002;2022-10-30T13:45:49;16.70;99.90
15072;DHT22;7635;56.696;13.002;2022-10-30T13:48:26;16.60;99.90
15072;DHT22;7635;56.696;13.002;2022-10-30T13:54:00;16.60;99.90
15072;DHT22;7635;56.696;13.002;2022-10-30T13:56:29;16.60;99.90
15072;DHT22;7635;56.696;13.002;2022-10-30T13:59:04;16.50;99.90
15072;DHT22;7635;56.696;13.002;2022-10-30T14:01:36;16.50;99.90
15072;DHT22;7635;56.696;13.002;2022-10-30T14:04:06;16.40;99.90
15072;DHT22;7635;56.696;13.002;2022-10-30T14:06:39;16.40;99.90
15072;DHT22;7635;56.696;13.002;2022-10-30T14:09:17;16.40;99.90
15072;DHT22;7635;56.696;13.002;2022-10-30T14:11:47;16.40;99.90
15072;DHT22;7635;56.696;13.002;2022-10-30T14:14:27;16.30;99.90
15072;DHT22;7635;56.696;13.002;2022-10-30T14:17:12;16.30;99.90
15072;DHT22;7635;56.696;13.002;2022-10-30T14:23:06;16.20;99.90
15072;DHT22;7635;56.696;13.002;2022-10-30T14:25:33;16.10;99.90
15072;DHT22;7635;56.696;13.002;2022-10-30T14:28:02;16.10;99.90
15072;DHT22;7635;56.696;13.002;2022-10-30T14:30:28;16.10;99.90
15072;DHT22;7635;56.696;13.002;2022-10-30T14:32:55;16.00;99.90
15072;DHT22;7635;56.696;13.002;2022-10-30T14:35:36;16.00;99.90
15072;DHT22;7635;56.696;13.002;2022-10-30T14:38:23;16.00;99.90
15072;DHT22;7635;56.696;13.002;2022-10-30T14:44:03;15.90;99.90
15072;DHT22;7635;56.696;13.002;2022-10-30T14:46:35;15.80;99.90
15072;DHT22;7635;56.696;13.002;2022-10-30T14:49:22;15.70;99.90
15072;DHT22;7635;56.696;13.002;2022-10-30T14:52:03;15.70;99.90
15072;DHT22;7635;56.696;13.002;2022-10-30T14:54:38;15.70;99.90
15072;DHT22;7635;56.696;13.002;2022-10-30T14:57:19;15.70;99.90
15072;DHT22;7635;56.696;13.002;2022-10-30T14:59:48;15.70;99.90
15072;DHT22;7635;56.696;13.002;2022-10-30T15:02:28;15.60;99.90
15072;DHT22;7635;56.696;13.002;2022-10-30T15:05:08;15.60;99.90
15072;DHT22;7635;56.696;13.002;2022-10-30T15:07:44;15.60;99.90
15072;DHT22;7635;56.696;13.002;2022-10-30T15:10:18;15.60;99.90
15072;DHT22;7635;56.696;13.002;2022-10-30T15:13:08;15.60;99.90
15072;DHT22;7635;56.696;13.002;2022-10-30T15:15:38;15.60;99.90
15072;DHT22;7635;56.696;13.002;2022-10-30T15:18:09;15.50;99.90
15072;DHT22;7635;56.696;13.002;2022-10-30T15:20:38;15.50;99.90
15072;DHT22;7635;56.696;13.002;2022-10-30T15:23:08;15.50;99.90
15072;DHT22;7635;56.696;13.002;2022-10-30T15:25:38;15.50;99.90
15072;DHT22;7635;56.696;13.002;2022-10-30T15:28:14;15.40;99.90
15072;DHT22;7635;56.696;13.002;2022-10-30T15:30:57;15.40;99.90
15072;DHT22;7635;56.696;13.002;2022-10-30T15:33:24;15.30;99.90
15072;DHT22;7635;56.696;13.002;2022-10-30T15:35:51;15.20;99.90
15072;DHT22;7635;56.696;13.002;2022-10-30T15:38:18;15.10;99.90
15072;DHT22;7635;56.696;13.002;2022-10-30T15:40:45;15.00;99.90
15072;DHT22;7635;56.696;13.002;2022-10-30T15:43:13;14.90;99.90
15072;DHT22;7635;56.696;13.002;2022-10-30T15:45:43;14.80;99.90
15072;DHT22;7635;56.696;13.002;2022-10-30T15:48:21;14.70;99.90
15072;DHT22;7635;56.696;13.002;2022-10-30T15:50:53;14.60;99.90
15072;DHT22;7635;56.696;13.002;2022-10-30T15:53:24;14.60;99.90
15072;DHT22;7635;56.696;13.002;2022-10-30T15:55:57;14.50;99.90
15072;DHT22;7635;56.696;13.002;2022-10-30T15:58:24;14.40;99.90